Time;durP1;ratioP1;P1;durP2;ratioP2;P2;SDS_P1;SDS_P2;PMS_P1;PMS_P2;Temp;Humidity;BMP_temperature;BMP_pressure;BME280_temperature;BME280_humidity;BME280_pressure;Samples;Min_cycle;Max_cycle;Signal;HPM_P1;HPM_P2
2020/12/10 00:00:23;;;;;;;;;;;4.90;99.60;;;;;;5054029;28;19932;-65
2020/12/10 00:02:49;;;;;;;;;;;4.90;99.50;;;;;;5053730;28;20267;-65
2020/12/10 00:05:16;;;;;;;;;;;4.90;99.40;;;;;;5054010;28;19939;-65
2020/12/10 00:07:42;;;;;;;;;;;5.00;99.60;;;;;;5054502;28;19931;-66
2020/12/10 00:10:09;;;;;;;;;;;5.00;99.60;;;;;;5054071;28;19944;-66
2020/12/10 00:12:39;;;;;;;;;;;5.00;99.70;;;;;;5038064;28;19936;-65
2020/12/10 00:15:07;;;;;;;;;;;5.10;99.60;;;;;;5037371;28;20362;-64
2020/12/10 00:17:33;;;;;;;;;;;5.00;99.40;;;;;;5051533;28;20263;-65
2020/12/10 00:19:59;;;;;;;;;;;4.90;99.40;;;;;;5045283;28;20259;-65
2020/12/10 00:22:26;;;;;;;;;;;5.00;99.60;;;;;;5041673;28;19936;-66
2020/12/10 00:24:53;;;;;;;;;;;5.10;99.60;;;;;;5033946;28;20314;-64
2020/12/10 00:27:23;;;;;;;;;;;5.10;99.50;;;;;;5033851;28;20343;-64
2020/12/10 00:29:49;;;;;;;;;;;5.00;99.20;;;;;;5053804;28;19925;-65
2020/12/10 00:32:17;;;;;;;;;;;5.00;99.30;;;;;;5053684;28;19925;-65
2020/12/10 00:34:43;;;;;;;;;;;5.00;99.30;;;;;;5053807;28;19925;-64
2020/12/10 00:37:10;;;;;;;;;;;4.90;99.30;;;;;;5053329;28;19935;-65
2020/12/10 00:39:36;;;;;;;;;;;5.00;99.60;;;;;;5053852;28;20266;-64
2020/12/10 00:42:03;;;;;;;;;;;4.90;99.40;;;;;;5053496;28;19960;-65
2020/12/10 00:44:29;;;;;;;;;;;4.90;99.70;;;;;;5053551;28;19959;-65
2020/12/10 00:46:56;;;;;;;;;;;4.90;99.50;;;;;;5053436;28;19979;-65
2020/12/10 00:49:23;;;;;;;;;;;4.90;99.40;;;;;;5036126;28;19975;-65
2020/12/10 00:51:50;;;;;;;;;;;4.80;99.40;;;;;;5053267;28;19924;-65
2020/12/10 00:54:17;;;;;;;;;;;4.80;99.20;;;;;;5048131;28;20037;-65
2020/12/10 00:56:43;;;;;;;;;;;4.80;99.00;;;;;;5053395;28;19998;-65
2020/12/10 00:59:09;;;;;;;;;;;4.70;99.20;;;;;;5052820;28;20025;-65
2020/12/10 01:01:36;;;;;;;;;;;4.80;99.30;;;;;;5053136;28;19924;-65
2020/12/10 01:04:02;;;;;;;;;;;4.70;99.20;;;;;;5053394;28;19925;-64
2020/12/10 01:06:29;;;;;;;;;;;4.70;99.40;;;;;;5052902;28;19986;-65
2020/12/10 01:08:55;;;;;;;;;;;4.70;99.50;;;;;;5045886;28;19945;-65
2020/12/10 01:11:26;;;;;;;;;;;4.70;99.50;;;;;;5046477;28;19958;-64
2020/12/10 01:13:52;;;;;;;;;;;4.70;99.40;;;;;;5048976;28;19935;-64
2020/12/10 01:16:18;;;;;;;;;;;4.70;99.30;;;;;;5052392;28;19976;-65
2020/12/10 01:18:45;;;;;;;;;;;4.70;99.40;;;;;;5052685;28;20359;-64
2020/12/10 01:21:11;;;;;;;;;;;4.70;99.50;;;;;;5052544;28;20238;-64
2020/12/10 01:23:38;;;;;;;;;;;4.60;99.30;;;;;;5035353;28;19925;-64
2020/12/10 01:26:04;;;;;;;;;;;4.60;99.50;;;;;;5033115;28;19953;-65
2020/12/10 01:28:31;;;;;;;;;;;4.60;99.50;;;;;;5032688;28;19925;-65
2020/12/10 01:30:57;;;;;;;;;;;4.60;99.50;;;;;;5032828;28;19926;-64
2020/12/10 01:33:23;;;;;;;;;;;4.70;99.50;;;;;;5045963;28;19925;-64
2020/12/10 01:35:49;;;;;;;;;;;4.60;99.40;;;;;;5052649;28;19952;-64
2020/12/10 01:38:15;;;;;;;;;;;4.60;99.30;;;;;;5052450;28;19947;-65
2020/12/10 01:40:49;;;;;;;;;;;4.60;99.20;;;;;;5052622;28;20348;-64
2020/12/10 01:43:15;;;;;;;;;;;4.60;99.30;;;;;;5052562;28;20270;-65
2020/12/10 01:45:42;;;;;;;;;;;4.60;99.50;;;;;;5053038;28;19992;-65
2020/12/10 01:48:08;;;;;;;;;;;4.70;99.60;;;;;;5048069;28;19925;-65
2020/12/10 01:50:34;;;;;;;;;;;4.70;99.20;;;;;;5041389;28;20262;-65
2020/12/10 01:53:02;;;;;;;;;;;4.70;99.10;;;;;;5043828;28;19925;-65
2020/12/10 01:55:28;;;;;;;;;;;4.60;99.10;;;;;;5044532;28;19924;-64
2020/12/10 01:57:55;;;;;;;;;;;4.60;99.20;;;;;;5052267;28;20400;-65
2020/12/10 02:00:21;;;;;;;;;;;4.50;99.20;;;;;;5047476;28;20034;-64
2020/12/10 02:02:54;;;;;;;;;;;4.60;99.30;;;;;;5031883;28;19956;-65
2020/12/10 02:05:20;;;;;;;;;;;4.40;99.20;;;;;;5031694;28;19943;-65
2020/12/10 02:07:46;;;;;;;;;;;4.30;99.40;;;;;;5032112;28;19979;-65
2020/12/10 02:10:12;;;;;;;;;;;4.30;99.60;;;;;;5031699;28;20425;-65
2020/12/10 02:12:40;;;;;;;;;;;4.20;99.70;;;;;;5032860;28;20263;-64
2020/12/10 02:15:07;;;;;;;;;;;4.20;99.90;;;;;;5051563;28;20379;-64
2020/12/10 02:17:34;;;;;;;;;;;4.10;99.90;;;;;;5052299;28;19987;-65
2020/12/10 02:20:00;;;;;;;;;;;4.10;99.90;;;;;;5052462;28;19963;-64
2020/12/10 02:22:26;;;;;;;;;;;4.10;99.90;;;;;;5044045;28;19925;-65
2020/12/10 02:24:53;;;;;;;;;;;4.10;99.90;;;;;;5032774;28;19925;-64
2020/12/10 02:27:19;;;;;;;;;;;4.10;99.90;;;;;;5034768;28;19925;-64
2020/12/10 02:29:46;;;;;;;;;;;4.10;99.90;;;;;;5036226;28;19983;-65
2020/12/10 02:32:12;;;;;;;;;;;4.20;99.90;;;;;;5036325;28;19965;-65
2020/12/10 02:34:38;;;;;;;;;;;4.30;99.90;;;;;;5036093;28;20988;-65
2020/12/10 02:37:04;;;;;;;;;;;4.30;99.90;;;;;;5036163;28;20527;-65
2020/12/10 02:39:31;;;;;;;;;;;4.30;99.90;;;;;;5036029;28;20252;-64
2020/12/10 02:41:58;;;;;;;;;;;4.30;99.90;;;;;;5036072;28;19964;-64
2020/12/10 02:44:24;;;;;;;;;;;4.40;99.90;;;;;;5035617;28;19925;-65
2020/12/10 02:46:50;;;;;;;;;;;4.40;99.90;;;;;;5035976;28;19925;-65
2020/12/10 02:49:16;;;;;;;;;;;4.40;99.80;;;;;;5050915;28;20355;-65
2020/12/10 02:51:43;;;;;;;;;;;4.30;99.60;;;;;;5055723;28;20317;-65
2020/12/10 02:54:09;;;;;;;;;;;4.30;99.90;;;;;;5048673;28;19982;-65
2020/12/10 02:56:35;;;;;;;;;;;4.30;99.90;;;;;;5055416;28;19936;-65
2020/12/10 02:59:02;;;;;;;;;;;4.30;99.90;;;;;;5055821;28;19925;-65
2020/12/10 03:01:29;;;;;;;;;;;4.30;99.90;;;;;;5055081;28;19924;-65
2020/12/10 03:03:55;;;;;;;;;;;4.40;99.90;;;;;;5055706;28;19928;-65
2020/12/10 03:06:21;;;;;;;;;;;4.40;99.90;;;;;;5054983;28;20263;-65
2020/12/10 03:08:47;;;;;;;;;;;4.40;99.90;;;;;;5055596;28;20318;-66
2020/12/10 03:11:14;;;;;;;;;;;4.50;99.90;;;;;;5050533;28;19925;-65
2020/12/10 03:13:40;;;;;;;;;;;4.50;99.80;;;;;;5043608;28;19924;-66
2020/12/10 03:16:08;;;;;;;;;;;4.60;99.90;;;;;;5055285;28;19924;-65
2020/12/10 03:18:34;;;;;;;;;;;4.70;99.80;;;;;;5055135;28;19935;-65
2020/12/10 03:21:00;;;;;;;;;;;4.70;99.30;;;;;;5055175;28;20026;-65
2020/12/10 03:23:26;;;;;;;;;;;4.60;99.50;;;;;;5037487;28;19953;-65
2020/12/10 03:25:53;;;;;;;;;;;4.60;99.50;;;;;;5035262;28;19987;-65
2020/12/10 03:28:19;;;;;;;;;;;4.60;99.30;;;;;;5034809;28;19925;-65
2020/12/10 03:30:45;;;;;;;;;;;4.50;99.20;;;;;;5035139;28;20314;-65
2020/12/10 03:33:12;;;;;;;;;;;4.50;99.50;;;;;;5035050;28;19925;-65
2020/12/10 03:35:38;;;;;;;;;;;4.60;99.60;;;;;;5034671;28;19975;-65
2020/12/10 03:38:07;;;;;;;;;;;4.60;99.50;;;;;;5033962;28;20326;-65
2020/12/10 03:40:33;;;;;;;;;;;4.60;99.30;;;;;;5034620;28;19932;-65
2020/12/10 03:42:59;;;;;;;;;;;4.60;99.30;;;;;;5035177;28;19975;-65
2020/12/10 03:45:25;;;;;;;;;;;4.60;99.30;;;;;;5034566;28;19929;-65
2020/12/10 03:47:52;;;;;;;;;;;4.60;99.30;;;;;;5038713;28;19924;-64
2020/12/10 03:50:19;;;;;;;;;;;4.60;99.40;;;;;;5054524;28;19971;-64
2020/12/10 03:52:45;;;;;;;;;;;4.70;99.50;;;;;;5045860;28;19929;-64
2020/12/10 03:55:11;;;;;;;;;;;4.70;99.20;;;;;;5034457;28;19929;-65
2020/12/10 03:57:37;;;;;;;;;;;4.70;99.30;;;;;;5034292;28;19948;-65
2020/12/10 04:00:04;;;;;;;;;;;4.70;99.20;;;;;;5034322;28;19925;-66
2020/12/10 04:02:31;;;;;;;;;;;4.70;99.20;;;;;;5034156;28;20371;-66
2020/12/10 04:04:58;;;;;;;;;;;4.60;99.00;;;;;;5033519;28;20210;-65
2020/12/10 04:07:26;;;;;;;;;;;4.70;99.20;;;;;;5033318;28;19929;-65
2020/12/10 04:09:52;;;;;;;;;;;4.60;99.20;;;;;;5033916;28;19956;-64
2020/12/10 04:12:18;;;;;;;;;;;4.60;99.40;;;;;;5033647;28;19925;-64
2020/12/10 04:14:44;;;;;;;;;;;4.70;99.50;;;;;;5033151;28;19951;-64
2020/12/10 04:17:10;;;;;;;;;;;4.70;99.50;;;;;;5033542;28;19987;-66
2020/12/10 04:19:37;;;;;;;;;;;4.70;99.40;;;;;;5033360;28;19975;-65
2020/12/10 04:22:03;;;;;;;;;;;4.80;99.50;;;;;;5050188;28;19978;-64
2020/12/10 04:24:30;;;;;;;;;;;4.80;99.20;;;;;;5053969;28;19979;-65
2020/12/10 04:26:56;;;;;;;;;;;4.80;99.10;;;;;;5054208;28;19925;-64
2020/12/10 04:29:22;;;;;;;;;;;4.80;99.20;;;;;;5054001;28;20347;-65
2020/12/10 04:31:49;;;;;;;;;;;4.80;99.10;;;;;;5053345;28;19960;-64
2020/12/10 04:34:15;;;;;;;;;;;4.90;99.10;;;;;;5054109;28;19929;-64
2020/12/10 04:36:41;;;;;;;;;;;4.90;99.00;;;;;;5053592;28;19952;-65
2020/12/10 04:39:08;;;;;;;;;;;4.90;98.80;;;;;;5054170;28;20013;-64
2020/12/10 04:41:36;;;;;;;;;;;4.90;98.70;;;;;;5053431;28;19978;-65
2020/12/10 04:44:03;;;;;;;;;;;4.80;98.70;;;;;;5057040;28;20055;-65
2020/12/10 04:46:29;;;;;;;;;;;4.80;98.70;;;;;;5053323;28;19925;-64
2020/12/10 04:48:56;;;;;;;;;;;4.80;98.80;;;;;;5053607;28;19947;-65
2020/12/10 04:51:22;;;;;;;;;;;4.70;98.80;;;;;;5053533;28;20032;-65
2020/12/10 04:53:50;;;;;;;;;;;4.70;98.90;;;;;;5053387;28;19925;-65
2020/12/10 04:56:17;;;;;;;;;;;4.60;98.60;;;;;;5053492;28;19925;-64
2020/12/10 04:58:44;;;;;;;;;;;4.60;98.80;;;;;;5053271;28;19960;-65
2020/12/10 05:01:10;;;;;;;;;;;4.60;98.90;;;;;;5053563;28;20312;-64
2020/12/10 05:03:36;;;;;;;;;;;4.60;98.90;;;;;;5045802;28;19936;-64
2020/12/10 05:06:09;;;;;;;;;;;4.50;98.90;;;;;;5033379;28;19983;-64
2020/12/10 05:08:36;;;;;;;;;;;4.50;98.90;;;;;;5033415;28;19936;-64
2020/12/10 05:11:02;;;;;;;;;;;4.40;99.00;;;;;;5033782;28;19990;-64
2020/12/10 05:13:28;;;;;;;;;;;4.40;99.20;;;;;;5032847;28;20340;-64
2020/12/10 05:15:55;;;;;;;;;;;4.50;99.00;;;;;;5033546;28;20444;-64
2020/12/10 05:18:22;;;;;;;;;;;4.40;99.00;;;;;;5033483;28;19979;-64
2020/12/10 05:20:48;;;;;;;;;;;4.40;99.10;;;;;;5038610;28;19931;-64
2020/12/10 05:23:16;;;;;;;;;;;4.20;99.10;;;;;;5053674;28;19955;-64
2020/12/10 05:25:46;;;;;;;;;;;4.20;99.20;;;;;;5052903;28;20030;-64
2020/12/10 05:28:13;;;;;;;;;;;4.10;99.30;;;;;;5053290;28;19996;-64
2020/12/10 05:30:39;;;;;;;;;;;4.10;99.50;;;;;;5052965;28;19924;-64
2020/12/10 05:33:09;;;;;;;;;;;4.20;99.70;;;;;;5053517;28;19928;-64
2020/12/10 05:35:36;;;;;;;;;;;4.30;99.70;;;;;;5052884;28;19928;-64
2020/12/10 05:38:07;;;;;;;;;;;4.30;99.50;;;;;;5053447;28;19929;-64
2020/12/10 05:40:33;;;;;;;;;;;4.30;99.40;;;;;;5052812;28;19971;-64
2020/12/10 05:42:59;;;;;;;;;;;4.30;99.20;;;;;;5053458;28;20313;-64
2020/12/10 05:45:25;;;;;;;;;;;4.40;99.30;;;;;;5053260;28;20340;-64
2020/12/10 05:47:52;;;;;;;;;;;4.30;99.20;;;;;;5052775;28;20002;-64
2020/12/10 05:50:24;;;;;;;;;;;4.30;99.30;;;;;;5053044;28;19983;-64
2020/12/10 05:52:56;;;;;;;;;;;4.30;99.20;;;;;;5052776;28;19925;-64
2020/12/10 05:55:23;;;;;;;;;;;4.30;99.30;;;;;;5053221;28;19925;-65
2020/12/10 05:57:49;;;;;;;;;;;4.20;99.30;;;;;;5052941;28;19933;-65
2020/12/10 06:00:15;;;;;;;;;;;4.20;99.30;;;;;;5053191;28;20270;-65
2020/12/10 06:02:42;;;;;;;;;;;4.20;99.50;;;;;;5055939;28;19925;-64
2020/12/10 06:05:09;;;;;;;;;;;4.20;99.60;;;;;;5057174;28;19924;-64
2020/12/10 06:07:36;;;;;;;;;;;4.20;99.40;;;;;;5056544;28;19940;-64
2020/12/10 06:10:03;;;;;;;;;;;4.20;99.50;;;;;;5057101;28;19925;-65
2020/12/10 06:12:29;;;;;;;;;;;4.30;99.60;;;;;;5041412;28;19926;-66
2020/12/10 06:14:58;;;;;;;;;;;4.30;99.60;;;;;;5036798;28;20339;-63
2020/12/10 06:17:24;;;;;;;;;;;4.40;99.60;;;;;;5037019;28;19925;-66
2020/12/10 06:19:51;;;;;;;;;;;4.40;99.30;;;;;;5036442;28;19969;-65
2020/12/10 06:22:23;;;;;;;;;;;4.40;99.00;;;;;;5054577;28;19925;-66
2020/12/10 06:24:51;;;;;;;;;;;4.40;98.80;;;;;;5055196;28;19960;-65
2020/12/10 06:27:27;;;;;;;;;;;4.30;98.80;;;;;;5056115;28;19928;-66
2020/12/10 06:30:13;;;;;;;;;;;4.30;99.10;;;;;;5049522;28;19968;-65
2020/12/10 06:32:39;;;;;;;;;;;4.30;99.20;;;;;;5056127;28;19925;-66
2020/12/10 06:35:06;;;;;;;;;;;4.20;99.30;;;;;;5056403;28;19925;-66
2020/12/10 06:37:32;;;;;;;;;;;4.10;99.40;;;;;;5055857;28;19951;-66
2020/12/10 06:40:00;;;;;;;;;;;4.00;99.60;;;;;;5056709;28;20325;-65
2020/12/10 06:42:42;;;;;;;;;;;4.10;99.80;;;;;;5056394;28;19929;-65
2020/12/10 06:45:23;;;;;;;;;;;4.10;99.50;;;;;;5056558;28;20244;-65
2020/12/10 06:47:49;;;;;;;;;;;4.00;99.40;;;;;;5056763;28;19925;-65
2020/12/10 06:50:22;;;;;;;;;;;4.10;99.60;;;;;;5055483;28;19975;-65
2020/12/10 06:53:03;;;;;;;;;;;4.00;99.50;;;;;;5056440;28;19992;-65
2020/12/10 06:55:30;;;;;;;;;;;4.10;99.40;;;;;;5056078;28;20355;-65
2020/12/10 06:58:02;;;;;;;;;;;4.10;99.50;;;;;;5055824;28;19924;-66
2020/12/10 07:00:40;;;;;;;;;;;4.10;99.60;;;;;;5056245;28;20240;-65
2020/12/10 07:03:19;;;;;;;;;;;4.10;99.50;;;;;;5055532;28;19964;-65
2020/12/10 07:05:46;;;;;;;;;;;4.20;99.40;;;;;;5055653;28;19929;-65
2020/12/10 07:08:14;;;;;;;;;;;4.20;99.40;;;;;;5056118;28;19990;-65
2020/12/10 07:10:42;;;;;;;;;;;4.20;99.50;;;;;;5042151;28;20008;-66
2020/12/10 07:13:08;;;;;;;;;;;4.20;99.20;;;;;;5054460;28;20022;-65
2020/12/10 07:15:35;;;;;;;;;;;4.20;99.30;;;;;;5054410;28;19976;-65
2020/12/10 07:18:02;;;;;;;;;;;4.20;99.40;;;;;;5055516;28;20355;-65
2020/12/10 07:20:29;;;;;;;;;;;4.30;99.40;;;;;;5055211;28;19939;-65
2020/12/10 07:22:55;;;;;;;;;;;4.30;99.70;;;;;;5055518;28;19929;-66
2020/12/10 07:25:22;;;;;;;;;;;4.30;99.60;;;;;;5055716;28;19925;-65
2020/12/10 07:27:49;;;;;;;;;;;4.30;99.90;;;;;;5055300;28;20298;-65
2020/12/10 07:30:16;;;;;;;;;;;4.30;99.50;;;;;;5068775;28;19924;-66
2020/12/10 07:32:43;;;;;;;;;;;4.30;99.50;;;;;;5070230;28;19925;-65
2020/12/10 07:35:09;;;;;;;;;;;4.30;99.60;;;;;;5054992;28;19925;-66
2020/12/10 07:37:36;;;;;;;;;;;4.40;99.70;;;;;;5073151;28;19928;-65
2020/12/10 07:40:09;;;;;;;;;;;4.40;99.40;;;;;;5073724;28;20304;-66
2020/12/10 07:42:35;;;;;;;;;;;4.40;99.40;;;;;;5055170;28;19983;-65
2020/12/10 07:45:10;;;;;;;;;;;4.40;99.30;;;;;;5054901;28;19937;-65
2020/12/10 07:47:41;;;;;;;;;;;4.30;99.30;;;;;;5055266;28;19932;-66
2020/12/10 07:52:57;;;;;;;;;;;4.40;99.20;;;;;;5054754;28;19920;-65
2020/12/10 07:55:24;;;;;;;;;;;4.40;99.20;;;;;;5054971;28;20323;-65
2020/12/10 07:57:56;;;;;;;;;;;4.30;99.20;;;;;;5054768;28;19925;-65
2020/12/10 08:00:24;;;;;;;;;;;4.30;99.20;;;;;;5054713;28;19936;-66
2020/12/10 08:02:55;;;;;;;;;;;4.30;99.40;;;;;;5054548;28;19974;-66
2020/12/10 08:05:21;;;;;;;;;;;4.40;99.60;;;;;;5054891;28;20008;-66
2020/12/10 08:07:48;;;;;;;;;;;4.50;99.40;;;;;;5054707;28;19924;-66
2020/12/10 08:10:25;;;;;;;;;;;4.50;99.20;;;;;;5054455;28;20421;-66
2020/12/10 08:13:10;;;;;;;;;;;4.50;99.10;;;;;;5054407;28;19986;-66
2020/12/10 08:15:37;;;;;;;;;;;4.60;99.00;;;;;;5054550;28;19982;-66
2020/12/10 08:18:04;;;;;;;;;;;4.60;99.10;;;;;;5054338;28;19955;-65
2020/12/10 08:20:51;;;;;;;;;;;4.50;98.90;;;;;;5054596;28;19933;-65
2020/12/10 08:23:18;;;;;;;;;;;4.50;99.20;;;;;;5049024;28;20758;-66
2020/12/10 08:25:45;;;;;;;;;;;4.50;99.10;;;;;;5053940;28;19924;-65
2020/12/10 08:28:12;;;;;;;;;;;4.50;99.00;;;;;;5053854;28;19924;-66
2020/12/10 08:31:08;;;;;;;;;;;4.50;98.90;;;;;;5054349;28;19925;-66
2020/12/10 08:33:34;;;;;;;;;;;4.50;98.60;;;;;;5054223;28;20184;-66
2020/12/10 08:36:00;;;;;;;;;;;4.50;98.60;;;;;;5054150;28;20216;-65
2020/12/10 08:38:29;;;;;;;;;;;4.50;98.90;;;;;;5054181;28;19925;-65
2020/12/10 08:40:56;;;;;;;;;;;4.50;98.80;;;;;;5053942;28;19931;-66
2020/12/10 08:43:23;;;;;;;;;;;4.50;98.80;;;;;;5054229;28;19929;-65
2020/12/10 08:45:50;;;;;;;;;;;4.50;98.90;;;;;;5053683;28;20326;-65
2020/12/10 08:48:17;;;;;;;;;;;4.50;98.90;;;;;;5054036;28;19925;-65
2020/12/10 08:50:51;;;;;;;;;;;4.50;99.00;;;;;;5053621;28;20313;-65
2020/12/10 08:53:17;;;;;;;;;;;4.50;99.00;;;;;;5053980;28;19925;-66
2020/12/10 08:55:45;;;;;;;;;;;4.50;99.00;;;;;;5053378;28;20322;-66
2020/12/10 08:58:15;;;;;;;;;;;4.50;99.10;;;;;;5053783;28;19924;-65
2020/12/10 09:00:42;;;;;;;;;;;4.60;99.30;;;;;;5053363;28;19925;-64
2020/12/10 09:03:09;;;;;;;;;;;4.60;99.10;;;;;;5053755;28;19925;-63
2020/12/10 09:05:36;;;;;;;;;;;4.70;98.90;;;;;;5053623;28;19994;-64
2020/12/10 09:08:02;;;;;;;;;;;4.80;98.80;;;;;;5053506;28;19928;-63
2020/12/10 09:10:29;;;;;;;;;;;4.80;98.60;;;;;;5053759;28;20392;-64
2020/12/10 09:12:56;;;;;;;;;;;4.80;98.50;;;;;;5053113;28;19925;-64
2020/12/10 09:15:22;;;;;;;;;;;4.90;98.20;;;;;;5053535;28;19954;-64
2020/12/10 09:17:49;;;;;;;;;;;4.90;98.20;;;;;;5053512;28;19975;-64
2020/12/10 09:20:16;;;;;;;;;;;4.80;98.10;;;;;;5053372;28;19928;-64
2020/12/10 09:22:42;;;;;;;;;;;4.80;98.30;;;;;;5053262;28;19925;-64
2020/12/10 09:25:09;;;;;;;;;;;4.80;98.20;;;;;;5053314;28;19931;-64
2020/12/10 09:27:35;;;;;;;;;;;4.90;98.20;;;;;;5053546;28;19928;-64
2020/12/10 09:30:03;;;;;;;;;;;4.90;98.40;;;;;;5052966;28;19990;-64
2020/12/10 09:32:32;;;;;;;;;;;4.90;98.30;;;;;;5053387;28;19979;-64
2020/12/10 09:34:58;;;;;;;;;;;4.90;98.30;;;;;;5052786;28;19932;-64
2020/12/10 09:37:26;;;;;;;;;;;5.00;98.40;;;;;;5053138;28;19928;-64
2020/12/10 09:39:55;;;;;;;;;;;5.00;98.40;;;;;;5052857;28;20375;-64
2020/12/10 09:42:21;;;;;;;;;;;5.00;98.20;;;;;;5052653;28;19925;-64
2020/12/10 09:44:47;;;;;;;;;;;5.00;97.90;;;;;;5052982;28;19925;-64
2020/12/10 09:47:13;;;;;;;;;;;5.00;97.90;;;;;;5053133;28;19959;-64
2020/12/10 09:49:40;;;;;;;;;;;5.00;98.00;;;;;;5053257;28;20305;-64
2020/12/10 09:52:07;;;;;;;;;;;5.00;97.90;;;;;;5052690;28;20649;-64
2020/12/10 09:54:51;;;;;;;;;;;5.00;97.70;;;;;;5053163;28;19982;-64
2020/12/10 10:00:03;;;;;;;;;;;5.10;97.90;;;;;;5053091;28;20240;-65
2020/12/10 10:02:29;;;;;;;;;;;5.00;97.60;;;;;;5052791;28;20283;-65
2020/12/10 10:04:55;;;;;;;;;;;5.00;97.70;;;;;;5052888;28;19945;-64
2020/12/10 10:07:22;;;;;;;;;;;4.90;97.60;;;;;;5052569;28;19929;-65
2020/12/10 10:09:49;;;;;;;;;;;4.80;97.80;;;;;;5053096;28;19925;-63
2020/12/10 10:12:15;;;;;;;;;;;4.90;98.40;;;;;;5052206;28;19982;-66
2020/12/10 10:14:42;;;;;;;;;;;4.80;98.00;;;;;;5053315;28;20146;-65
2020/12/10 10:17:09;;;;;;;;;;;4.80;98.20;;;;;;5052442;28;19925;-65
2020/12/10 10:19:36;;;;;;;;;;;4.80;98.10;;;;;;5052991;28;19982;-65
2020/12/10 10:22:03;;;;;;;;;;;4.80;98.10;;;;;;5052682;28;19924;-65
2020/12/10 10:24:31;;;;;;;;;;;4.80;98.10;;;;;;5052638;28;20164;-63
2020/12/10 10:26:58;;;;;;;;;;;4.80;98.30;;;;;;5052381;28;19968;-66
2020/12/10 10:29:24;;;;;;;;;;;4.70;98.30;;;;;;5052533;28;19947;-64
2020/12/10 10:31:51;;;;;;;;;;;4.70;98.40;;;;;;5052602;28;19986;-64
2020/12/10 10:34:17;;;;;;;;;;;4.70;98.90;;;;;;5052217;28;19998;-66
2020/12/10 10:36:44;;;;;;;;;;;4.70;98.40;;;;;;5052548;28;19924;-65
2020/12/10 10:39:11;;;;;;;;;;;4.70;98.70;;;;;;5052253;28;20420;-65
2020/12/10 10:41:41;;;;;;;;;;;4.70;98.60;;;;;;5052634;28;19924;-66
2020/12/10 10:44:08;;;;;;;;;;;4.80;98.70;;;;;;5052094;28;20271;-66
2020/12/10 10:46:35;;;;;;;;;;;4.70;98.40;;;;;;5052562;28;19952;-65
2020/12/10 10:49:01;;;;;;;;;;;4.80;98.50;;;;;;5056024;28;19928;-65
2020/12/10 10:51:27;;;;;;;;;;;4.80;98.40;;;;;;5055683;28;19932;-65
2020/12/10 10:53:54;;;;;;;;;;;4.80;98.20;;;;;;5056077;28;19976;-65
2020/12/10 10:56:21;;;;;;;;;;;4.80;98.40;;;;;;5055490;28;19936;-65
2020/12/10 10:58:48;;;;;;;;;;;4.80;98.30;;;;;;5056126;28;19939;-65
2020/12/10 11:01:15;;;;;;;;;;;4.80;98.30;;;;;;5055538;28;19978;-65
2020/12/10 11:03:41;;;;;;;;;;;4.80;98.60;;;;;;5056038;28;19925;-65
2020/12/10 11:06:07;;;;;;;;;;;4.80;98.50;;;;;;5055551;28;19925;-65
2020/12/10 11:08:34;;;;;;;;;;;4.80;98.40;;;;;;5055514;28;19925;-66
2020/12/10 11:11:00;;;;;;;;;;;4.90;98.20;;;;;;5055702;28;19986;-65
2020/12/10 11:13:26;;;;;;;;;;;5.00;98.30;;;;;;5055336;28;20408;-64
2020/12/10 11:15:52;;;;;;;;;;;4.90;98.10;;;;;;5055548;28;20424;-64
2020/12/10 11:18:20;;;;;;;;;;;5.00;98.30;;;;;;5055353;28;20328;-66
2020/12/10 11:20:46;;;;;;;;;;;5.00;98.40;;;;;;5055485;28;19924;-65
2020/12/10 11:23:13;;;;;;;;;;;5.10;98.40;;;;;;5055417;28;19932;-65
2020/12/10 11:25:40;;;;;;;;;;;5.10;98.50;;;;;;5055600;28;19925;-66
2020/12/10 11:28:06;;;;;;;;;;;5.20;98.40;;;;;;5055310;28;19975;-65
2020/12/10 11:30:32;;;;;;;;;;;5.10;98.00;;;;;;5055160;28;19925;-65
2020/12/10 11:32:58;;;;;;;;;;;5.10;98.00;;;;;;5055684;28;20260;-66
2020/12/10 11:35:26;;;;;;;;;;;5.00;97.70;;;;;;5054963;28;19925;-66
2020/12/10 11:37:55;;;;;;;;;;;5.00;97.90;;;;;;5055432;28;20017;-64
2020/12/10 11:40:21;;;;;;;;;;;4.90;98.00;;;;;;5054807;28;19978;-63
2020/12/10 11:42:49;;;;;;;;;;;5.00;98.20;;;;;;5055315;28;19982;-66
2020/12/10 11:45:16;;;;;;;;;;;4.90;97.90;;;;;;5054574;28;20024;-64
2020/12/10 11:47:42;;;;;;;;;;;4.90;97.90;;;;;;5055317;28;20355;-63
2020/12/10 11:50:08;;;;;;;;;;;4.90;98.00;;;;;;5054921;28;19924;-64
2020/12/10 11:52:35;;;;;;;;;;;4.80;98.00;;;;;;5054598;28;20413;-65
2020/12/10 11:55:01;;;;;;;;;;;4.80;97.90;;;;;;5055309;28;19924;-65
2020/12/10 11:57:28;;;;;;;;;;;4.80;98.10;;;;;;5054679;28;19924;-65
2020/12/10 11:59:54;;;;;;;;;;;4.80;98.10;;;;;;5054057;28;20211;-65
2020/12/10 12:02:20;;;;;;;;;;;4.70;98.00;;;;;;5054187;28;19924;-65
2020/12/10 12:04:46;;;;;;;;;;;4.60;98.00;;;;;;5054951;28;19928;-65
2020/12/10 12:07:13;;;;;;;;;;;4.60;97.90;;;;;;5054533;28;20424;-66
2020/12/10 12:09:40;;;;;;;;;;;4.50;98.30;;;;;;5054901;28;20255;-65
2020/12/10 12:12:06;;;;;;;;;;;4.40;98.30;;;;;;5054552;28;19924;-65
2020/12/10 12:14:32;;;;;;;;;;;4.40;98.70;;;;;;5054249;28;19994;-65
2020/12/10 12:16:59;;;;;;;;;;;4.40;98.70;;;;;;5046804;28;20022;-65
2020/12/10 12:19:25;;;;;;;;;;;4.50;98.60;;;;;;5052672;28;19990;-65
2020/12/10 12:21:51;;;;;;;;;;;4.50;98.80;;;;;;5046842;28;20010;-65
2020/12/10 12:24:17;;;;;;;;;;;4.60;98.80;;;;;;5050152;28;19983;-65
2020/12/10 12:26:44;;;;;;;;;;;4.60;98.50;;;;;;5047041;28;20018;-65
2020/12/10 12:29:11;;;;;;;;;;;4.60;98.20;;;;;;5043431;28;20021;-65
2020/12/10 12:31:38;;;;;;;;;;;4.60;98.30;;;;;;5051515;28;19952;-65
2020/12/10 12:34:05;;;;;;;;;;;4.70;98.10;;;;;;5054181;28;19972;-65
2020/12/10 12:36:31;;;;;;;;;;;4.70;98.30;;;;;;5052032;28;19924;-65
2020/12/10 12:38:58;;;;;;;;;;;4.70;98.00;;;;;;5052026;28;19925;-65
2020/12/10 12:41:28;;;;;;;;;;;4.70;97.90;;;;;;5043704;28;19980;-65
2020/12/10 12:43:55;;;;;;;;;;;4.80;98.00;;;;;;5033508;28;19925;-65
2020/12/10 12:46:22;;;;;;;;;;;4.80;97.90;;;;;;5044358;28;19925;-65
2020/12/10 12:48:49;;;;;;;;;;;4.80;97.80;;;;;;5050161;28;19932;-65
2020/12/10 12:51:15;;;;;;;;;;;4.80;98.00;;;;;;5043873;28;19929;-65
2020/12/10 12:53:44;;;;;;;;;;;4.80;98.00;;;;;;5052572;28;19929;-65
2020/12/10 12:56:10;;;;;;;;;;;4.80;98.10;;;;;;5048042;28;19940;-65
2020/12/10 12:58:36;;;;;;;;;;;4.80;97.70;;;;;;5053122;28;19925;-64
2020/12/10 13:01:03;;;;;;;;;;;4.80;97.80;;;;;;5049953;28;19956;-64
2020/12/10 13:03:30;;;;;;;;;;;4.80;97.70;;;;;;5041543;28;20006;-64
2020/12/10 13:05:56;;;;;;;;;;;4.80;97.90;;;;;;5051922;28;19979;-64
2020/12/10 13:08:22;;;;;;;;;;;4.80;97.60;;;;;;5053173;28;19978;-65
2020/12/10 13:10:48;;;;;;;;;;;4.70;97.60;;;;;;5050020;28;19925;-64
2020/12/10 13:13:15;;;;;;;;;;;4.70;97.90;;;;;;5051537;28;19928;-64
2020/12/10 13:15:41;;;;;;;;;;;4.60;97.70;;;;;;5052653;28;19975;-66
2020/12/10 13:18:10;;;;;;;;;;;4.60;97.80;;;;;;5051588;28;20337;-65
2020/12/10 13:20:37;;;;;;;;;;;4.60;98.00;;;;;;5049874;28;19932;-65
2020/12/10 13:23:03;;;;;;;;;;;4.60;98.10;;;;;;5047086;28;20320;-65
2020/12/10 13:25:29;;;;;;;;;;;4.50;98.00;;;;;;5049363;28;19968;-65
2020/12/10 13:27:56;;;;;;;;;;;4.50;98.30;;;;;;5044230;28;19924;-64
2020/12/10 13:30:23;;;;;;;;;;;4.60;98.10;;;;;;5052307;28;19929;-64
2020/12/10 13:32:50;;;;;;;;;;;4.60;97.90;;;;;;5052375;28;20021;-64
2020/12/10 13:35:17;;;;;;;;;;;4.50;97.90;;;;;;5052507;28;19924;-64
2020/12/10 13:37:43;;;;;;;;;;;4.50;98.10;;;;;;5050571;28;20359;-64
2020/12/10 13:40:09;;;;;;;;;;;4.50;98.20;;;;;;5052518;28;20347;-64
2020/12/10 13:42:36;;;;;;;;;;;4.60;98.10;;;;;;5039441;28;20280;-64
2020/12/10 13:45:03;;;;;;;;;;;4.60;98.20;;;;;;5053088;28;19924;-65
2020/12/10 13:47:31;;;;;;;;;;;4.60;98.20;;;;;;5051147;28;19970;-64
2020/12/10 13:49:57;;;;;;;;;;;4.70;98.20;;;;;;5050137;28;19968;-65
2020/12/10 13:52:25;;;;;;;;;;;4.70;98.00;;;;;;5052413;28;19929;-66
2020/12/10 13:54:51;;;;;;;;;;;4.60;98.00;;;;;;5051389;28;20012;-65
2020/12/10 13:57:17;;;;;;;;;;;4.70;98.20;;;;;;5048777;28;19982;-65
2020/12/10 13:59:44;;;;;;;;;;;4.70;97.80;;;;;;5049331;28;19925;-65
2020/12/10 14:02:10;;;;;;;;;;;4.70;97.80;;;;;;5045963;28;19925;-65
2020/12/10 14:04:36;;;;;;;;;;;4.70;97.70;;;;;;5044614;28;20370;-65
2020/12/10 14:07:03;;;;;;;;;;;4.70;97.90;;;;;;5048774;28;20259;-65
2020/12/10 14:09:30;;;;;;;;;;;4.70;98.10;;;;;;5052146;28;20047;-65
2020/12/10 14:11:58;;;;;;;;;;;4.80;98.10;;;;;;5051645;28;20019;-65
2020/12/10 14:14:24;;;;;;;;;;;4.70;97.80;;;;;;5052182;28;19929;-65
2020/12/10 14:16:50;;;;;;;;;;;4.80;97.90;;;;;;5049943;28;19936;-65
2020/12/10 14:19:16;;;;;;;;;;;4.80;97.80;;;;;;5049136;28;19990;-65
2020/12/10 14:21:43;;;;;;;;;;;4.70;97.40;;;;;;5043058;28;19968;-65
2020/12/10 14:24:09;;;;;;;;;;;4.70;97.40;;;;;;5056103;28;19925;-65
2020/12/10 14:26:36;;;;;;;;;;;4.60;97.40;;;;;;5045573;28;20006;-65
2020/12/10 14:29:02;;;;;;;;;;;4.50;97.80;;;;;;5056528;28;20405;-65
2020/12/10 14:31:29;;;;;;;;;;;4.40;97.50;;;;;;5051741;28;19924;-65
2020/12/10 14:33:55;;;;;;;;;;;4.40;97.70;;;;;;5053149;28;19941;-65
2020/12/10 14:36:21;;;;;;;;;;;4.40;97.90;;;;;;5055707;28;19925;-65